Time;durP1;ratioP1;P1;durP2;ratioP2;P2;SDS_P1;SDS_P2;PMS_P1;PMS_P2;Temp;Humidity;BMP_temperature;BMP_pressure;BME280_temperature;BME280_humidity;BME280_pressure;Samples;Min_cycle;Max_cycle;Signal;HPM_P1;HPM_P2
2022/10/23 00:01:50;;;;;;;;;;;13.40;65.60;;;9.06;100.00;95656.84;5010661;28;19959;-47
2022/10/23 00:04:24;;;;;;;;;;;13.40;65.60;;;9.00;100.00;95648.84;4994108;28;19909;-47
2022/10/23 00:06:55;;;;;;;;;;;13.40;65.70;;;9.01;100.00;95647.00;5010923;28;19920;-48
2022/10/23 00:09:23;;;;;;;;;;;13.40;65.70;;;9.00;100.00;95640.09;4979519;28;19909;-48
2022/10/23 00:11:52;;;;;;;;;;;13.40;65.70;;;8.94;100.00;95633.13;5005590;28;19924;-48
2022/10/23 00:14:24;;;;;;;;;;;13.30;65.70;;;9.09;100.00;95635.09;4979085;28;19916;-48
2022/10/23 00:16:50;;;;;;;;;;;13.40;65.90;;;9.23;100.00;95634.41;5020401;28;20322;-48
2022/10/23 00:19:21;;;;;;;;;;;13.40;66.10;;;9.27;100.00;95632.03;5011752;28;20050;-48
2022/10/23 00:21:53;;;;;;;;;;;13.40;66.20;;;9.31;100.00;95635.00;4993880;28;19913;-49
2022/10/23 00:24:25;;;;;;;;;;;13.50;66.40;;;9.39;100.00;95632.66;5006166;28;19913;-49
2022/10/23 00:26:51;;;;;;;;;;;13.50;66.40;;;9.44;100.00;95639.91;4996695;28;20409;-48
2022/10/23 00:29:16;;;;;;;;;;;13.60;66.50;;;9.48;100.00;95647.09;5008356;28;20012;-49
2022/10/23 00:31:42;;;;;;;;;;;13.60;66.50;;;9.50;100.00;95637.00;5010507;28;20307;-48
2022/10/23 00:34:08;;;;;;;;;;;13.70;66.50;;;9.52;100.00;95642.06;4983111;28;20295;-49
2022/10/23 00:36:34;;;;;;;;;;;13.70;66.50;;;9.51;100.00;95637.81;5012876;28;19920;-48
2022/10/23 00:39:12;;;;;;;;;;;13.70;66.40;;;9.61;100.00;95637.88;5010842;28;20050;-48
2022/10/23 00:41:41;;;;;;;;;;;13.80;66.50;;;9.61;100.00;95640.53;5010375;28;19913;-48
2022/10/23 00:44:30;;;;;;;;;;;13.90;66.50;;;9.60;100.00;95643.47;5011307;28;19913;-48
2022/10/23 00:46:59;;;;;;;;;;;13.80;66.30;;;9.59;100.00;95641.84;5016297;28;19915;-53
2022/10/23 00:49:27;;;;;;;;;;;13.90;66.40;;;9.57;100.00;95643.97;5002332;28;19909;-51
2022/10/23 00:51:58;;;;;;;;;;;13.90;66.40;;;9.55;100.00;95649.53;5013259;28;19940;-48
2022/10/23 00:54:32;;;;;;;;;;;13.90;66.40;;;9.53;100.00;95646.34;5008444;28;20011;-49
2022/10/23 00:57:01;;;;;;;;;;;13.80;66.30;;;9.47;100.00;95644.69;5003688;28;19916;-48
2022/10/23 00:59:34;;;;;;;;;;;13.80;66.30;;;9.39;100.00;95640.66;4987294;28;19920;-49
2022/10/23 01:02:16;;;;;;;;;;;13.80;66.30;;;9.35;100.00;95644.88;5001239;28;19913;-50
2022/10/23 01:04:48;;;;;;;;;;;13.80;66.20;;;9.35;100.00;95644.09;4991349;28;20653;-48
2022/10/23 01:07:55;;;;;;;;;;;13.80;66.30;;;9.36;100.00;95646.47;4998685;28;19913;-47
2022/10/23 01:11:45;;;;;;;;;;;13.70;66.30;;;9.36;100.00;95635.03;4946419;28;19991;-52
2022/10/23 01:14:16;;;;;;;;;;;13.70;66.40;;;9.35;100.00;95628.13;4961064;28;19921;-48
2022/10/23 01:17:46;;;;;;;;;;;13.70;66.60;;;9.33;100.00;95631.03;4994479;28;19916;-48
2022/10/23 01:20:42;;;;;;;;;;;13.70;66.60;;;9.34;100.00;95627.34;4976648;28;19916;-48
2022/10/23 01:23:53;;;;;;;;;;;13.60;66.70;;;9.29;100.00;95627.28;4987696;28;20004;-51
2022/10/23 01:26:59;;;;;;;;;;;13.60;66.60;;;9.26;100.00;95617.97;5012972;28;20027;-51
2022/10/23 01:29:40;;;;;;;;;;;13.60;66.70;;;9.23;100.00;95612.34;4998472;28;20438;-48
2022/10/23 01:32:23;;;;;;;;;;;13.60;66.70;;;9.16;100.00;95603.81;5024490;28;20286;-48
2022/10/23 01:35:23;;;;;;;;;;;13.60;66.80;;;9.22;100.00;95608.91;4979867;28;20371;-49
2022/10/23 01:38:05;;;;;;;;;;;13.60;66.90;;;9.24;100.00;95611.28;5009799;28;19920;-49
2022/10/23 01:40:50;;;;;;;;;;;13.60;66.90;;;9.23;100.00;95604.38;4993127;28;19916;-49
2022/10/23 01:43:26;;;;;;;;;;;13.60;67.00;;;9.29;100.00;95602.56;5012384;28;20375;-48
2022/10/23 01:46:04;;;;;;;;;;;13.60;67.10;;;9.29;100.00;95603.38;5001661;28;19909;-48
2022/10/23 01:48:34;;;;;;;;;;;13.60;67.10;;;9.26;100.00;95602.00;4995836;28;19909;-49
2022/10/23 01:51:07;;;;;;;;;;;13.60;67.10;;;9.27;100.00;95600.16;4993266;28;19948;-48
2022/10/23 01:53:42;;;;;;;;;;;13.60;67.00;;;9.24;100.00;95596.16;4984348;28;19917;-48
2022/10/23 01:56:21;;;;;;;;;;;13.60;67.00;;;9.19;100.00;95592.66;5009388;28;19908;-49
2022/10/23 01:58:52;;;;;;;;;;;13.60;66.90;;;9.16;100.00;95590.53;5028778;28;19920;-48
2022/10/23 02:01:26;;;;;;;;;;;13.50;66.80;;;9.11;100.00;95587.81;4994262;28;20462;-48
2022/10/23 02:03:54;;;;;;;;;;;13.50;66.80;;;9.04;100.00;95588.84;5002566;28;19913;-48
2022/10/23 02:06:20;;;;;;;;;;;13.50;66.70;;;9.00;100.00;95581.63;4992958;28;19922;-48
2022/10/23 02:08:49;;;;;;;;;;;13.50;66.70;;;8.93;100.00;95573.88;5002436;28;19913;-48
2022/10/23 02:11:19;;;;;;;;;;;13.40;66.70;;;8.89;100.00;95579.94;5008542;28;19913;-48
2022/10/23 02:14:15;;;;;;;;;;;13.40;66.70;;;8.85;100.00;95577.00;5009271;28;19916;-48
2022/10/23 02:17:01;;;;;;;;;;;13.40;66.80;;;8.80;100.00;95576.94;5001401;28;20016;-48
2022/10/23 02:20:25;;;;;;;;;;;13.30;66.80;;;8.74;100.00;95584.09;5009921;28;20338;-48
2022/10/23 02:23:11;;;;;;;;;;;13.30;66.90;;;8.72;100.00;95583.53;5014599;28;19917;-48
2022/10/23 02:26:18;;;;;;;;;;;13.20;66.90;;;8.72;100.00;95580.06;5033701;28;19909;-48
2022/10/23 02:29:00;;;;;;;;;;;13.20;67.00;;;8.73;100.00;95569.19;5008235;28;19930;-48
2022/10/23 02:31:26;;;;;;;;;;;13.20;67.10;;;8.71;100.00;95568.66;5013684;28;20273;-48
2022/10/23 02:33:55;;;;;;;;;;;13.20;67.20;;;8.71;100.00;95573.16;4980150;28;19963;-48
2022/10/23 02:36:24;;;;;;;;;;;13.10;67.20;;;8.71;100.00;95567.84;5008078;28;19995;-48
2022/10/23 02:38:52;;;;;;;;;;;13.10;67.20;;;8.70;100.00;95571.56;5028191;28;19913;-48
2022/10/23 02:41:50;;;;;;;;;;;13.10;67.30;;;8.67;100.00;95562.22;5004447;28;19913;-49
2022/10/23 02:45:11;;;;;;;;;;;13.10;67.30;;;8.68;100.00;95557.72;5013525;28;19915;-51
2022/10/23 02:48:18;;;;;;;;;;;13.10;67.40;;;8.67;100.00;95559.56;4970709;28;19909;-50
2022/10/23 02:51:31;;;;;;;;;;;13.10;67.40;;;8.66;100.00;95557.19;4994804;28;20479;-52
2022/10/23 02:54:49;;;;;;;;;;;13.10;67.40;;;8.65;100.00;95542.28;5016121;28;19909;-48
2022/10/23 02:57:28;;;;;;;;;;;13.10;67.40;;;8.66;100.00;95543.91;5022396;28;19913;-48
2022/10/23 03:00:21;;;;;;;;;;;13.10;67.50;;;8.66;100.00;95539.41;5004278;23;19932;-53
2022/10/23 03:03:08;;;;;;;;;;;13.10;67.50;;;8.70;100.00;95545.78;4974697;28;20379;-52
2022/10/23 03:05:39;;;;;;;;;;;13.10;67.60;;;8.78;100.00;95541.88;4990059;28;20371;-49
2022/10/23 03:08:11;;;;;;;;;;;13.10;67.60;;;8.84;100.00;95540.03;4971732;28;19909;-56
2022/10/23 03:10:37;;;;;;;;;;;13.10;67.70;;;8.86;100.00;95535.28;5007987;28;19909;-54
2022/10/23 03:13:14;;;;;;;;;;;13.10;67.60;;;8.84;100.00;95526.75;4995272;28;19913;-54
2022/10/23 03:15:46;;;;;;;;;;;13.10;67.60;;;8.86;100.00;95527.31;5012564;28;19909;-51
2022/10/23 03:18:12;;;;;;;;;;;13.10;67.60;;;8.91;100.00;95538.78;4977872;28;19913;-54
2022/10/23 03:20:41;;;;;;;;;;;13.20;67.80;;;8.90;100.00;95539.03;5011271;28;20100;-53
2022/10/23 03:23:12;;;;;;;;;;;13.20;67.70;;;8.91;100.00;95536.13;4988721;28;19913;-53
2022/10/23 03:25:38;;;;;;;;;;;13.20;67.80;;;8.89;100.00;95527.59;5011396;28;19916;-55
2022/10/23 03:28:04;;;;;;;;;;;13.20;67.70;;;8.81;100.00;95517.47;4975667;28;19909;-54
2022/10/23 03:30:33;;;;;;;;;;;13.20;67.60;;;8.75;100.00;95523.81;4997804;28;20004;-55
2022/10/23 03:33:10;;;;;;;;;;;13.20;67.60;;;8.72;100.00;95532.28;4990899;28;20020;-53
2022/10/23 03:35:42;;;;;;;;;;;13.10;67.50;;;8.68;100.00;95513.41;5001679;28;19996;-51
2022/10/23 03:38:08;;;;;;;;;;;13.10;67.60;;;8.64;100.00;95512.28;5011129;28;19917;-51
2022/10/23 03:40:34;;;;;;;;;;;13.10;67.60;;;8.67;100.00;95518.94;4993737;28;19909;-51
2022/10/23 03:43:00;;;;;;;;;;;13.10;67.70;;;8.73;100.00;95500.13;4994530;28;19913;-54
2022/10/23 03:45:25;;;;;;;;;;;13.10;67.80;;;8.79;100.00;95509.75;4994830;28;20355;-54
2022/10/23 03:47:51;;;;;;;;;;;13.10;67.90;;;8.80;100.00;95514.00;5011553;28;20398;-53
2022/10/23 03:50:20;;;;;;;;;;;13.10;67.90;;;8.81;100.00;95501.53;5011796;28;19916;-56
2022/10/23 03:52:46;;;;;;;;;;;13.10;68.00;;;8.83;100.00;95496.75;5011748;28;19909;-54
2022/10/23 03:55:15;;;;;;;;;;;13.10;67.90;;;8.89;100.00;95505.56;5011056;28;19936;-51
2022/10/23 03:57:41;;;;;;;;;;;13.10;68.00;;;8.90;100.00;95496.53;4994083;28;19999;-56
2022/10/23 04:00:08;;;;;;;;;;;13.20;68.10;;;8.90;100.00;95497.34;5010229;28;20013;-55
2022/10/23 04:02:43;;;;;;;;;;;13.20;68.10;;;8.93;100.00;95491.53;5011537;28;20061;-55
2022/10/23 04:05:10;;;;;;;;;;;13.20;68.10;;;8.91;100.00;95483.00;4993572;28;19948;-54
2022/10/23 04:07:38;;;;;;;;;;;13.20;68.10;;;8.92;100.00;95483.81;4974740;28;19944;-50
2022/10/23 04:10:07;;;;;;;;;;;13.20;68.20;;;8.95;100.00;95496.56;5011088;28;19956;-52
2022/10/23 04:12:36;;;;;;;;;;;13.20;68.20;;;8.93;100.00;95504.81;5010467;28;19909;-54
2022/10/23 04:15:02;;;;;;;;;;;13.20;68.30;;;8.96;100.00;95491.03;5011777;28;19909;-55
2022/10/23 04:17:28;;;;;;;;;;;13.20;68.30;;;8.97;100.00;95500.59;5009758;28;20322;-55
2022/10/23 04:19:54;;;;;;;;;;;13.30;68.40;;;8.96;100.00;95493.69;4990406;28;19920;-54
2022/10/23 04:22:19;;;;;;;;;;;13.30;68.40;;;9.02;100.00;95492.66;4990609;28;20020;-51
2022/10/23 04:24:46;;;;;;;;;;;13.20;68.40;;;9.13;100.00;95495.38;5000940;28;19913;-54
2022/10/23 04:27:15;;;;;;;;;;;13.20;68.50;;;9.17;100.00;95497.22;4990258;28;19913;-51
2022/10/23 04:29:44;;;;;;;;;;;13.30;68.60;;;9.14;100.00;95505.72;4982961;28;20442;-54
2022/10/23 04:32:15;;;;;;;;;;;13.40;68.60;;;9.11;100.00;95500.13;4996039;28;19956;-50
2022/10/23 04:34:40;;;;;;;;;;;13.40;68.50;;;9.12;100.00;95504.38;4996809;28;20328;-51
2022/10/23 04:37:12;;;;;;;;;;;13.40;68.70;;;9.09;100.00;95495.09;4995200;28;20008;-51
2022/10/23 04:39:43;;;;;;;;;;;13.40;68.60;;;9.06;100.00;95505.41;4973673;28;19910;-51
2022/10/23 04:42:12;;;;;;;;;;;13.40;68.50;;;9.02;100.00;95508.59;5001576;28;20435;-51
2022/10/23 04:44:38;;;;;;;;;;;13.40;68.40;;;9.00;100.00;95497.41;5009800;28;19913;-51
2022/10/23 04:47:04;;;;;;;;;;;13.30;68.40;;;8.95;100.00;95493.91;4989026;28;19913;-52
2022/10/23 04:49:30;;;;;;;;;;;13.30;68.40;;;8.99;100.00;95506.44;5002755;28;19953;-52
2022/10/23 04:51:55;;;;;;;;;;;13.30;68.50;;;8.96;100.00;95498.16;4993245;28;20050;-52
2022/10/23 04:54:21;;;;;;;;;;;13.30;68.40;;;8.98;100.00;95488.88;4997760;28;19913;-52
2022/10/23 04:56:47;;;;;;;;;;;13.30;68.50;;;9.01;100.00;95492.91;4991606;28;20387;-55
2022/10/23 04:59:16;;;;;;;;;;;13.30;68.60;;;9.04;100.00;95489.72;4995478;28;19917;-55
2022/10/23 05:01:50;;;;;;;;;;;13.30;68.70;;;9.00;100.00;95481.47;5010818;28;19917;-54
2022/10/23 05:04:16;;;;;;;;;;;13.30;68.70;;;8.98;100.00;95488.88;4991975;28;20364;-55
2022/10/23 05:06:48;;;;;;;;;;;13.30;68.70;;;8.99;100.00;95498.47;5006622;28;19913;-57
2022/10/23 05:09:13;;;;;;;;;;;13.30;68.70;;;9.00;100.00;95489.44;5010312;28;19917;-56
2022/10/23 05:11:45;;;;;;;;;;;13.30;68.70;;;8.99;100.00;95481.72;5010148;28;19909;-57
2022/10/23 05:14:23;;;;;;;;;;;13.30;68.70;;;9.00;100.00;95484.13;5010669;28;19913;-55
2022/10/23 05:17:45;;;;;;;;;;;13.30;68.80;;;9.01;100.00;95491.03;5008434;28;19955;-57
2022/10/23 05:20:21;;;;;;;;;;;13.30;68.80;;;9.03;100.00;95496.91;4960980;28;19974;-57
2022/10/23 05:22:50;;;;;;;;;;;13.30;69.00;;;9.03;100.00;95502.22;4992542;28;20458;-56
2022/10/23 05:25:16;;;;;;;;;;;13.30;68.90;;;9.00;100.00;95497.41;4976831;28;19937;-57
2022/10/23 05:27:45;;;;;;;;;;;13.30;68.80;;;8.93;100.00;95496.00;5009406;28;20283;-55
2022/10/23 05:30:12;;;;;;;;;;;13.30;68.70;;;8.89;100.00;95497.59;5009025;28;20354;-55
2022/10/23 05:32:40;;;;;;;;;;;13.30;68.70;;;8.89;100.00;95509.00;4993128;28;19936;-54
2022/10/23 05:35:20;;;;;;;;;;;13.30;68.80;;;8.87;100.00;95497.88;5006403;28;20406;-55
2022/10/23 05:37:51;;;;;;;;;;;13.30;68.80;;;8.82;100.00;95508.44;4993316;28;19909;-55
2022/10/23 05:40:17;;;;;;;;;;;13.20;68.70;;;8.77;100.00;95503.09;4992361;28;19909;-55
2022/10/23 05:42:43;;;;;;;;;;;13.20;68.60;;;8.74;100.00;95507.06;4999325;28;20368;-55
2022/10/23 05:45:11;;;;;;;;;;;13.20;68.60;;;8.72;100.00;95519.78;4990803;28;19915;-55
2022/10/23 05:47:44;;;;;;;;;;;13.20;68.70;;;8.66;100.00;95499.56;4998258;28;19909;-54
2022/10/23 05:50:11;;;;;;;;;;;13.10;68.60;;;8.63;100.00;95505.38;5009649;28;19928;-54
2022/10/23 05:52:37;;;;;;;;;;;13.10;68.60;;;8.59;100.00;95501.63;4991613;28;20325;-54
2022/10/23 05:55:03;;;;;;;;;;;13.00;68.60;;;8.60;100.00;95505.09;4995883;28;19916;-54
2022/10/23 05:57:37;;;;;;;;;;;13.00;68.60;;;8.50;100.00;95535.00;5014344;28;20375;-57
2022/10/23 06:00:12;;;;;;;;;;;13.00;68.70;;;8.38;100.00;95515.75;5012373;28;19917;-57
2022/10/23 06:02:44;;;;;;;;;;;13.00;68.60;;;8.38;100.00;95510.44;5012877;28;20085;-56
2022/10/23 06:05:10;;;;;;;;;;;12.90;68.60;;;8.40;100.00;95518.97;5012980;28;19978;-57
2022/10/23 06:07:38;;;;;;;;;;;12.90;68.60;;;8.31;100.00;95506.16;4984669;28;20363;-57
2022/10/23 06:10:05;;;;;;;;;;;12.80;68.50;;;8.31;100.00;95502.69;5013768;28;20376;-57
2022/10/23 06:12:32;;;;;;;;;;;12.80;68.60;;;8.34;100.00;95510.94;5012877;28;19967;-55
2022/10/23 06:14:58;;;;;;;;;;;12.80;68.80;;;8.38;100.00;95529.03;4996303;28;20330;-57
2022/10/23 06:17:24;;;;;;;;;;;12.80;68.90;;;8.37;100.00;95524.75;4977368;28;19914;-53
2022/10/23 06:20:07;;;;;;;;;;;12.80;68.90;;;8.33;100.00;95519.16;5004948;28;19916;-57
2022/10/23 06:22:33;;;;;;;;;;;12.90;68.80;;;8.29;100.00;95510.91;4993436;28;20008;-56
2022/10/23 06:25:08;;;;;;;;;;;12.90;68.70;;;8.29;100.00;95515.41;4996259;28;20004;-57
2022/10/23 06:27:43;;;;;;;;;;;12.90;68.70;;;8.28;100.00;95519.13;5013468;28;20282;-55
2022/10/23 06:30:09;;;;;;;;;;;12.90;68.70;;;8.30;100.00;95506.38;5011994;28;19913;-53
2022/10/23 06:32:35;;;;;;;;;;;12.90;68.70;;;8.30;100.00;95515.16;5012310;28;20288;-56
2022/10/23 06:35:04;;;;;;;;;;;12.90;68.70;;;8.28;100.00;95516.47;5012654;28;19916;-56
2022/10/23 06:37:42;;;;;;;;;;;12.90;68.80;;;8.32;100.00;95528.19;5013460;28;19917;-52
2022/10/23 06:40:11;;;;;;;;;;;13.00;68.80;;;8.33;100.00;95529.75;4996035;28;19939;-54
2022/10/23 06:42:37;;;;;;;;;;;13.00;68.70;;;8.33;100.00;95541.19;5012161;28;19959;-52
2022/10/23 06:45:06;;;;;;;;;;;13.00;68.70;;;8.33;100.00;95541.19;5012243;28;20272;-51
2022/10/23 06:47:35;;;;;;;;;;;13.00;68.60;;;8.37;100.00;95536.19;5012753;28;19994;-54
2022/10/23 06:50:00;;;;;;;;;;;13.00;68.60;;;8.37;100.00;95536.19;5004449;28;19966;-52
2022/10/23 06:52:30;;;;;;;;;;;13.10;68.60;;;8.34;100.00;95536.69;5010807;28;20287;-54
2022/10/23 06:54:56;;;;;;;;;;;13.10;68.60;;;8.42;100.00;95533.59;4993486;28;20011;-54
2022/10/23 06:57:24;;;;;;;;;;;13.10;68.50;;;8.44;100.00;95536.81;4993661;28;20039;-53
2022/10/23 06:59:50;;;;;;;;;;;13.10;68.50;;;8.47;100.00;95540.81;4985731;28;19924;-54
2022/10/23 07:02:16;;;;;;;;;;;13.20;68.60;;;8.46;100.00;95532.06;4992163;28;19913;-55
2022/10/23 07:04:41;;;;;;;;;;;13.20;68.60;;;8.50;100.00;95545.63;4989531;28;19914;-54
2022/10/23 07:07:09;;;;;;;;;;;13.20;68.60;;;8.52;100.00;95551.47;4984216;28;19964;-50
2022/10/23 07:09:35;;;;;;;;;;;13.30;68.60;;;8.58;100.00;95553.91;4986467;28;20328;-52
2022/10/23 07:12:07;;;;;;;;;;;13.30;68.50;;;8.63;100.00;95561.13;4988769;28;19960;-53
2022/10/23 07:14:36;;;;;;;;;;;13.40;68.60;;;8.74;100.00;95551.41;4989041;28;19913;-55
2022/10/23 07:17:07;;;;;;;;;;;13.50;68.60;;;8.88;100.00;95551.78;4983491;28;20334;-51
2022/10/23 07:19:33;;;;;;;;;;;13.70;68.60;;;9.11;100.00;95551.41;4989574;28;19909;-54
2022/10/23 07:21:59;;;;;;;;;;;14.00;68.60;;;9.44;100.00;95558.28;4992473;28;19952;-49
2022/10/23 07:24:24;;;;;;;;;;;14.40;68.40;;;9.74;100.00;95562.13;4984403;28;19921;-51
2022/10/23 07:26:50;;;;;;;;;;;14.80;68.30;;;9.96;100.00;95565.44;4990230;28;19947;-52
2022/10/23 07:29:16;;;;;;;;;;;15.10;68.10;;;10.08;100.00;95557.22;4984305;28;21047;-55
2022/10/23 07:31:42;;;;;;;;;;;15.40;67.80;;;10.21;100.00;95553.25;4996325;28;20015;-52
2022/10/23 07:34:09;;;;;;;;;;;15.50;67.60;;;10.27;100.00;95551.44;4991340;28;20480;-55
2022/10/23 07:36:35;;;;;;;;;;;15.60;67.40;;;10.33;100.00;95550.38;5004262;28;19988;-52
2022/10/23 07:39:04;;;;;;;;;;;15.70;67.30;;;10.43;100.00;95555.72;4982465;28;19913;-54
2022/10/23 07:41:32;;;;;;;;;;;15.80;67.20;;;10.42;100.00;95560.25;4998803;28;19916;-53
2022/10/23 07:44:07;;;;;;;;;;;15.90;67.10;;;10.53;100.00;95560.25;5002856;28;19912;-50
2022/10/23 07:46:33;;;;;;;;;;;16.00;66.90;;;10.62;100.00;95564.81;5001382;28;19940;-53
2022/10/23 07:48:59;;;;;;;;;;;16.20;66.90;;;10.78;100.00;95551.50;4990787;28;20324;-55
2022/10/23 07:51:33;;;;;;;;;;;16.30;66.80;;;10.91;100.00;95558.19;4996788;28;20424;-50
2022/10/23 07:53:59;;;;;;;;;;;16.50;66.70;;;11.08;100.00;95558.69;4997460;28;19910;-52
2022/10/23 07:56:31;;;;;;;;;;;16.70;66.60;;;11.16;100.00;95563.50;4987351;28;19927;-55
2022/10/23 07:58:57;;;;;;;;;;;16.80;66.60;;;11.28;100.00;95540.03;4979928;28;19933;-49
2022/10/23 08:01:33;;;;;;;;;;;16.80;66.50;;;11.51;100.00;95545.81;4994100;28;19924;-52
2022/10/23 08:03:59;;;;;;;;;;;17.10;66.40;;;11.92;100.00;95549.19;4989384;28;19955;-51
2022/10/23 08:06:25;;;;;;;;;;;17.60;66.40;;;12.27;100.00;95542.88;4982743;28;19916;-51
2022/10/23 08:09:03;;;;;;;;;;;18.00;66.10;;;12.68;100.00;95549.81;4993470;28;20350;-53
2022/10/23 08:11:34;;;;;;;;;;;18.50;66.00;;;12.97;100.00;95541.84;4962593;28;20101;-55
2022/10/23 08:14:03;;;;;;;;;;;19.00;65.70;;;13.18;100.00;95553.16;4986892;28;20283;-52
2022/10/23 08:16:31;;;;;;;;;;;19.50;65.40;;;13.43;98.44;95546.81;4967635;28;19961;-55
2022/10/23 08:18:57;;;;;;;;;;;19.80;65.00;;;13.72;97.28;95533.38;4987931;28;19921;-53
2022/10/23 08:21:23;;;;;;;;;;;20.10;64.80;;;14.07;94.92;95537.53;4987344;28;19910;-55
2022/10/23 08:23:55;;;;;;;;;;;20.50;64.50;;;14.18;89.81;95534.72;4975198;28;19945;-51
2022/10/23 08:26:23;;;;;;;;;;;20.80;64.10;;;14.41;91.49;95522.34;4990551;28;19935;-50
2022/10/23 08:28:58;;;;;;;;;;;20.90;63.70;;;14.40;87.42;95518.84;4989545;28;19909;-51
2022/10/23 08:31:29;;;;;;;;;;;20.90;63.60;;;14.52;87.99;95526.50;4974198;28;19909;-52
2022/10/23 08:33:58;;;;;;;;;;;21.00;63.40;;;14.53;86.44;95528.88;4991593;28;19914;-50
2022/10/23 08:36:27;;;;;;;;;;;21.20;62.90;;;14.83;87.71;95531.41;4991004;28;19985;-52
2022/10/23 08:38:57;;;;;;;;;;;21.40;62.60;;;14.89;85.82;95511.47;4974252;28;19949;-53
2022/10/23 08:41:34;;;;;;;;;;;21.60;62.30;;;15.01;82.88;95512.59;5003351;28;19936;-48
2022/10/23 08:44:37;;;;;;;;;;;21.80;62.10;;;15.07;84.09;95512.50;4981428;28;19923;-55
2022/10/23 08:47:47;;;;;;;;;;;22.00;61.60;;;15.44;83.44;95514.25;4958726;28;19956;-53
2022/10/23 08:50:32;;;;;;;;;;;22.30;61.30;;;15.79;81.65;95512.78;4982350;28;19910;-56
2022/10/23 08:53:25;;;;;;;;;;;22.60;60.90;;;16.03;80.22;95496.47;4993066;28;19922;-54
2022/10/23 08:56:21;;;;;;;;;;;23.00;60.50;;;16.46;80.38;95503.34;4988876;28;19909;-53
2022/10/23 08:59:26;;;;;;;;;;;23.30;60.10;;;16.70;77.59;95498.47;5010565;22;19921;-52
2022/10/23 09:02:04;;;;;;;;;;;23.50;59.90;;;16.84;74.91;95499.25;4980618;28;19922;-56
2022/10/23 09:04:31;;;;;;;;;;;23.60;59.60;;;16.99;75.54;95506.16;4969149;28;19917;-55
2022/10/23 09:07:17;;;;;;;;;;;23.70;59.40;;;17.03;74.56;95490.97;4991699;28;19914;-52
2022/10/23 09:10:09;;;;;;;;;;;23.70;59.20;;;17.28;72.14;95483.38;4993579;28;19952;-54
2022/10/23 09:12:36;;;;;;;;;;;23.90;58.90;;;17.43;72.65;95492.94;4991673;28;19916;-53
2022/10/23 09:15:30;;;;;;;;;;;24.00;58.70;;;17.41;71.94;95504.00;4995980;28;19910;-56
2022/10/23 09:18:15;;;;;;;;;;;24.10;58.40;;;17.11;70.52;95492.16;5006715;28;19962;-55
2022/10/23 09:20:46;;;;;;;;;;;24.10;58.10;;;17.28;71.33;95492.22;4976815;28;19909;-52
2022/10/23 09:23:17;;;;;;;;;;;24.10;57.90;;;17.30;71.88;95495.41;4969264;28;19912;-56
2022/10/23 09:25:46;;;;;;;;;;;24.00;57.80;;;17.14;73.59;95494.19;4976807;28;19920;-56
2022/10/23 09:28:30;;;;;;;;;;;24.00;57.60;;;17.03;74.16;95485.59;4982547;28;19909;-56
2022/10/23 09:31:11;;;;;;;;;;;23.90;57.50;;;17.03;73.67;95476.75;5011183;28;19909;-53
2022/10/23 09:33:38;;;;;;;;;;;23.80;57.40;;;16.97;73.53;95483.34;4981344;28;19912;-54
2022/10/23 09:36:19;;;;;;;;;;;23.80;57.20;;;16.81;72.48;95467.56;4983205;28;19955;-56
2022/10/23 09:38:45;;;;;;;;;;;23.70;57.20;;;16.99;74.29;95467.69;5000693;28;20273;-53
2022/10/23 09:41:38;;;;;;;;;;;23.60;57.10;;;17.11;74.44;95478.69;4991593;28;19920;-54
2022/10/23 09:44:26;;;;;;;;;;;23.60;57.00;;;17.29;73.17;95477.66;4999550;28;19920;-53
2022/10/23 09:47:10;;;;;;;;;;;23.60;57.10;;;17.34;72.85;95461.38;5015123;28;20019;-55
2022/10/23 09:49:45;;;;;;;;;;;23.70;57.10;;;17.24;72.20;95461.66;4996354;28;20280;-53
2022/10/23 09:52:10;;;;;;;;;;;23.70;57.00;;;17.26;72.71;95455.94;4991655;28;19913;-53
2022/10/23 09:55:01;;;;;;;;;;;23.80;56.90;;;17.29;72.27;95450.75;5011933;28;19909;-53
2022/10/23 09:57:44;;;;;;;;;;;23.80;56.80;;;17.37;72.50;95451.09;4963255;28;26919;-56
2022/10/23 10:00:19;;;;;;;;;;;23.90;56.70;;;17.45;73.00;95443.03;4989984;28;19921;-51
2022/10/23 10:03:05;;;;;;;;;;;24.00;56.60;;;17.74;72.76;95441.72;4977613;28;19921;-50
2022/10/23 10:05:37;;;;;;;;;;;24.10;56.50;;;17.80;72.66;95462.06;4976567;28;19964;-53
2022/10/23 10:08:32;;;;;;;;;;;24.40;56.40;;;18.03;71.79;95443.88;4972180;28;20388;-53
2022/10/23 10:11:35;;;;;;;;;;;24.70;56.20;;;18.41;70.68;95435.97;4974463;28;20376;-52
2022/10/23 10:14:51;;;;;;;;;;;25.00;55.90;;;18.68;69.28;95450.22;4977443;28;19910;-56
2022/10/23 10:17:27;;;;;;;;;;;25.60;55.60;;;19.04;68.51;95441.78;4970054;28;20008;-53
2022/10/23 10:20:47;;;;;;;;;;;26.00;55.40;;;19.36;65.20;95443.09;4956699;28;20276;-54
2022/10/23 10:23:31;;;;;;;;;;;26.50;55.10;;;19.69;64.19;95439.03;4946354;28;20025;-54
2022/10/23 10:27:07;;;;;;;;;;;26.90;54.80;;;19.80;63.03;95445.63;4992310;28;19910;-51
2022/10/23 10:30:14;;;;;;;;;;;27.30;54.40;;;20.27;61.14;95432.75;4968572;28;19913;-56
2022/10/23 10:33:23;;;;;;;;;;;27.90;53.90;;;20.82;58.40;95436.31;4977390;28;19956;-56
2022/10/23 10:36:18;;;;;;;;;;;28.40;53.40;;;20.96;59.76;95430.59;4932587;28;19914;-55
2022/10/23 10:38:59;;;;;;;;;;;28.70;53.00;;;21.36;57.81;95436.22;4959488;28;19914;-56
2022/10/23 10:41:56;;;;;;;;;;;29.10;52.70;;;21.84;58.91;95442.81;4972427;28;19909;-52
2022/10/23 10:45:27;;;;;;;;;;;29.70;52.40;;;21.93;59.29;95440.75;4989468;28;19941;-51
2022/10/23 10:48:30;;;;;;;;;;;29.80;52.00;;;21.86;57.82;95448.66;4964675;28;19909;-56
2022/10/23 10:51:07;;;;;;;;;;;29.60;51.50;;;21.59;56.10;95424.94;4988686;28;19910;-53
2022/10/23 10:54:17;;;;;;;;;;;29.40;51.40;;;21.63;55.93;95434.78;4957596;28;19935;-55
2022/10/23 10:56:46;;;;;;;;;;;29.20;51.20;;;21.39;56.85;95434.78;4989038;28;19917;-51
2022/10/23 10:59:35;;;;;;;;;;;28.80;51.00;;;21.14;57.41;95420.38;4972709;28;19914;-51
2022/10/23 11:02:27;;;;;;;;;;;28.40;50.90;;;20.72;59.38;95434.81;4993813;28;19919;-55
2022/10/23 11:05:37;;;;;;;;;;;28.00;51.00;;;20.44;63.34;95431.06;5010855;28;19913;-51
2022/10/23 11:08:41;;;;;;;;;;;27.70;51.00;;;20.35;63.26;95423.00;4981971;28;19913;-52
2022/10/23 11:11:36;;;;;;;;;;;27.30;51.10;;;20.09;64.95;95428.63;4981667;28;20022;-54
2022/10/23 11:14:13;;;;;;;;;;;27.00;51.20;;;19.79;65.90;95420.50;4980653;28;20391;-50
2022/10/23 11:16:41;;;;;;;;;;;26.70;51.30;;;19.63;65.91;95414.06;5011802;28;19909;-50
2022/10/23 11:19:27;;;;;;;;;;;26.50;51.40;;;19.64;67.14;95421.88;4975556;28;20066;-53
2022/10/23 11:22:45;;;;;;;;;;;26.40;51.60;;;19.42;66.86;95427.50;4976408;28;19923;-54
2022/10/23 11:25:32;;;;;;;;;;;26.20;51.60;;;19.29;68.00;95425.81;4993070;28;20264;-50
2022/10/23 11:28:15;;;;;;;;;;;25.90;51.50;;;19.41;67.73;95437.53;4992706;28;19913;-55
2022/10/23 11:31:03;;;;;;;;;;;25.80;52.40;;;19.28;68.19;95426.94;4997587;28;19913;-52
2022/10/23 11:34:15;;;;;;;;;;;25.70;51.90;;;19.05;68.43;95419.06;5002382;28;19914;-52
2022/10/23 11:36:52;;;;;;;;;;;25.50;52.00;;;18.95;68.84;95422.09;4986130;28;19913;-56
2022/10/23 11:39:31;;;;;;;;;;;25.30;52.10;;;18.84;68.26;95415.47;5011594;28;19948;-54
2022/10/23 11:42:03;;;;;;;;;;;25.20;52.20;;;18.85;67.22;95401.66;4990049;28;19959;-53
2022/10/23 11:44:54;;;;;;;;;;;25.00;52.30;;;18.83;67.63;95424.66;4992133;28;19953;-50
2022/10/23 11:47:37;;;;;;;;;;;24.90;52.40;;;18.55;68.40;95425.03;4997102;28;21322;-51
2022/10/23 11:50:06;;;;;;;;;;;24.80;52.40;;;18.66;67.21;95371.53;4998800;28;19909;-51
2022/10/23 11:52:35;;;;;;;;;;;24.70;52.40;;;18.58;66.84;95394.69;4996528;28;19909;-50
2022/10/23 11:55:26;;;;;;;;;;;24.80;52.40;;;18.63;69.38;95428.81;5009501;28;19954;-49
2022/10/23 11:58:17;;;;;;;;;;;24.70;52.30;;;18.66;68.56;95379.63;4980596;28;19916;-56
2022/10/23 12:01:15;;;;;;;;;;;24.90;52.40;;;18.75;66.38;95393.13;5010300;28;19983;-50
2022/10/23 12:04:13;;;;;;;;;;;25.00;52.20;;;18.84;65.75;95396.59;4995551;28;19917;-53